Terminal Aerodrome Forecast
Issued by NWS

Home | Current Version | Previous Version | Text Only | Print | Product List | Glossary On
Versions: 1 2 3 4 5 6 7 8 9 10 11 12 13 14 15 16 17 18 19 20
000
FTUS45 KABQ 010500
TAFFMN
TAF
KFMN 010531Z 0106/0206 08005KT P6SM VCSH BKN050
     FM011100 VRB05KT 1SM -RASN BR OVC006
      TEMPO 0111/0114 1/2SM SN FZFG OVC003
     FM011900 06008KT P6SM VCSH SCT015 BKN035
     FM012100 10009KT P6SM SCT050 SCT090
     FM020100 VRB05KT P6SM SCT090=

USA.gov is the U.S. government's official web portal to all federal, state and local government web resources and services.